createdAt,value
2023-03-11T00:01:14.526Z,20.65
2023-03-11T00:03:41.039Z,18.55
2023-03-11T00:06:07.506Z,21.17
2023-03-11T00:08:33.879Z,16.75
2023-03-11T00:11:00.421Z,18.98
2023-03-11T00:13:27.485Z,17.95
2023-03-11T00:15:56.744Z,18.90
2023-03-11T00:18:24.538Z,18.38
2023-03-11T00:20:51.251Z,16.70
2023-03-11T00:23:17.772Z,17.67
2023-03-11T00:25:45.409Z,18.00
2023-03-11T00:28:13.209Z,17.23
2023-03-11T00:30:41.109Z,17.30
2023-03-11T00:33:10.528Z,18.00
2023-03-11T00:35:36.959Z,17.75
2023-03-11T00:38:06.677Z,15.82
2023-03-11T00:40:34.893Z,15.93
2023-03-11T00:43:01.306Z,13.20
2023-03-11T00:45:28.686Z,15.98
2023-03-11T00:47:55.827Z,13.55
2023-03-11T00:50:26.008Z,11.02
2023-03-11T00:52:52.768Z,13.10
2023-03-11T00:55:21.932Z,13.88
2023-03-11T00:57:51.000Z,13.02
2023-03-11T01:00:20.457Z,14.07
2023-03-11T01:02:46.875Z,11.65
2023-03-11T01:05:13.996Z,11.45
2023-03-11T01:07:41.813Z,9.90
2023-03-11T01:10:09.973Z,10.13
2023-03-11T01:12:36.548Z,10.20
2023-03-11T01:15:04.484Z,8.23
2023-03-11T01:17:30.893Z,9.63
2023-03-11T01:19:57.262Z,7.25
2023-03-11T01:22:23.977Z,6.35
2023-03-11T01:24:51.661Z,6.00
2023-03-11T01:27:18.051Z,6.75
2023-03-11T01:29:44.623Z,6.43
2023-03-11T01:32:11.245Z,6.82
2023-03-11T01:34:37.746Z,5.82
2023-03-11T01:37:04.289Z,8.02
2023-03-11T01:39:30.641Z,6.85
2023-03-11T01:41:58.366Z,6.25
2023-03-11T01:44:24.842Z,5.63
2023-03-11T01:47:28.517Z,5.30
2023-03-11T01:49:54.926Z,3.97
2023-03-11T01:52:21.540Z,5.43
2023-03-11T01:54:49.594Z,5.95
2023-03-11T01:57:21.372Z,5.10
2023-03-11T01:59:50.649Z,5.95
2023-03-11T02:02:19.818Z,6.05
2023-03-11T02:04:46.556Z,8.52
2023-03-11T02:07:14.530Z,6.82
2023-03-11T02:09:41.129Z,7.28
2023-03-11T02:12:11.274Z,6.47
2023-03-11T02:14:43.236Z,7.07
2023-03-11T02:17:09.680Z,6.65
2023-03-11T02:19:46.673Z,8.07
2023-03-11T02:22:13.897Z,8.77
2023-03-11T02:24:46.429Z,6.88
2023-03-11T02:27:17.602Z,7.00
2023-03-11T02:29:46.170Z,6.50
2023-03-11T02:32:12.778Z,8.32
2023-03-11T02:34:39.741Z,7.65
2023-03-11T02:37:08.742Z,5.55
2023-03-11T02:39:36.930Z,8.63
2023-03-11T02:42:06.926Z,8.70
2023-03-11T02:44:34.998Z,5.85
2023-03-11T02:47:01.804Z,6.72
2023-03-11T02:49:29.659Z,7.15
2023-03-11T02:51:56.110Z,7.28
2023-03-11T02:54:22.554Z,6.22
2023-03-11T02:56:48.942Z,8.13
2023-03-11T02:59:15.358Z,9.00
2023-03-11T03:01:43.143Z,5.88
2023-03-11T03:04:09.572Z,5.75
2023-03-11T03:06:36.099Z,8.10
2023-03-11T03:09:02.853Z,7.40
2023-03-11T03:11:29.426Z,7.68
2023-03-11T03:13:55.830Z,6.63
2023-03-11T03:16:22.306Z,5.57
2023-03-11T03:18:50.055Z,6.78
2023-03-11T03:21:16.453Z,8.43
2023-03-11T03:23:42.795Z,6.75
2023-03-11T03:26:12.608Z,10.82
2023-03-11T03:28:39.050Z,9.98
2023-03-11T03:31:07.279Z,9.63
2023-03-11T03:33:34.028Z,10.18
2023-03-11T03:36:06.449Z,7.70
2023-03-11T03:38:32.906Z,11.05
2023-03-11T03:40:59.432Z,7.22
2023-03-11T03:43:25.785Z,6.68
2023-03-11T03:45:56.583Z,9.07
2023-03-11T03:48:23.011Z,9.13
2023-03-11T03:50:49.401Z,7.00
2023-03-11T03:53:17.103Z,9.55
2023-03-11T03:55:43.485Z,6.32
2023-03-11T03:58:09.872Z,7.72
2023-03-11T04:00:36.593Z,14.45
2023-03-11T04:03:03.531Z,7.00
2023-03-11T04:05:29.981Z,9.57
2023-03-11T04:07:56.344Z,9.52
2023-03-11T04:10:24.088Z,7.95
2023-03-11T04:12:50.524Z,9.55
2023-03-11T04:15:17.032Z,7.78
2023-03-11T04:17:43.462Z,6.13
2023-03-11T04:20:11.190Z,9.65
2023-03-11T04:22:37.547Z,5.97
2023-03-11T04:25:04.407Z,7.28
2023-03-11T04:27:32.126Z,9.90
2023-03-11T04:29:58.573Z,7.78
2023-03-11T04:32:24.982Z,6.10
2023-03-11T04:34:51.376Z,7.22
2023-03-11T04:37:17.705Z,6.88
2023-03-11T04:39:44.063Z,5.88
2023-03-11T04:42:10.469Z,5.28
2023-03-11T04:44:38.224Z,4.55
2023-03-11T04:47:04.830Z,7.97
2023-03-11T04:49:31.245Z,5.50
2023-03-11T04:51:57.615Z,10.02
2023-03-11T04:54:23.962Z,3.83
2023-03-11T04:56:50.337Z,6.03
2023-03-11T04:59:16.689Z,5.57
2023-03-11T05:01:44.415Z,9.73
2023-03-11T05:04:10.870Z,6.57
2023-03-11T05:06:37.300Z,6.90
2023-03-11T05:09:04.369Z,8.63
2023-03-11T05:11:30.976Z,7.95
2023-03-11T05:13:57.351Z,5.70
2023-03-11T05:16:23.839Z,7.03
2023-03-11T05:18:51.617Z,6.20
2023-03-11T05:21:17.968Z,7.93
2023-03-11T05:23:44.385Z,4.93
2023-03-11T05:26:10.802Z,7.65
2023-03-11T05:28:37.204Z,5.38
2023-03-11T05:31:08.080Z,5.28
2023-03-11T05:33:34.561Z,6.30
2023-03-11T05:36:05.927Z,5.20
2023-03-11T05:38:32.308Z,6.68
2023-03-11T05:40:58.724Z,4.97
2023-03-11T05:43:25.154Z,7.35
2023-03-11T05:45:51.532Z,6.95
2023-03-11T05:48:17.889Z,6.50
2023-03-11T05:50:44.234Z,11.20
2023-03-11T05:53:11.904Z,6.45
2023-03-11T05:55:38.271Z,8.70
2023-03-11T05:58:04.660Z,6.25
2023-03-11T06:00:31.036Z,6.80
2023-03-11T06:02:57.455Z,5.10
2023-03-11T06:05:23.860Z,5.53
2023-03-11T06:07:50.235Z,3.63
2023-03-11T06:10:18.223Z,8.00
2023-03-11T06:12:44.560Z,7.90
2023-03-11T06:15:11.265Z,6.20
2023-03-11T06:17:37.670Z,6.95
2023-03-11T06:20:04.710Z,4.13
2023-03-11T06:22:31.049Z,4.57
2023-03-11T06:24:57.448Z,6.20
2023-03-11T06:27:25.244Z,8.95
2023-03-11T06:29:52.658Z,8.73
2023-03-11T06:32:19.079Z,4.53
2023-03-11T06:34:50.463Z,6.95
2023-03-11T06:37:16.853Z,6.93
2023-03-11T06:39:43.257Z,6.22
2023-03-11T06:42:10.080Z,5.25
2023-03-11T06:44:37.822Z,5.55
2023-03-11T06:47:04.442Z,8.85
2023-03-11T06:49:30.881Z,7.68
2023-03-11T06:51:57.236Z,3.13
2023-03-11T06:54:23.646Z,5.53
2023-03-11T06:56:50.126Z,7.78
2023-03-11T06:59:16.768Z,8.35
2023-03-11T07:01:44.579Z,6.93
2023-03-11T07:04:11.069Z,6.13
2023-03-11T07:06:37.508Z,6.18
2023-03-11T07:09:04.042Z,4.30
2023-03-11T07:11:30.430Z,6.28
2023-03-11T07:13:56.781Z,7.15
2023-03-11T07:16:24.746Z,5.38
2023-03-11T07:18:55.254Z,10.82
2023-03-11T07:21:22.907Z,7.90
2023-03-11T07:23:52.391Z,5.85
2023-03-11T07:26:18.956Z,8.32
2023-03-11T07:28:45.346Z,6.13
2023-03-11T07:31:14.223Z,7.60
2023-03-11T07:33:40.734Z,6.80
2023-03-11T07:36:10.905Z,7.80
2023-03-11T07:38:37.686Z,7.07
2023-03-11T07:41:05.078Z,7.22
2023-03-11T07:43:31.987Z,4.82
2023-03-11T07:46:06.817Z,5.78
2023-03-11T07:48:35.433Z,10.55
2023-03-11T07:51:03.342Z,5.70
2023-03-11T07:53:31.233Z,6.47
2023-03-11T07:55:58.292Z,3.88
2023-03-11T07:58:24.892Z,6.30
2023-03-11T08:00:51.687Z,4.35
2023-03-11T08:03:18.454Z,3.65
2023-03-11T08:05:44.814Z,3.40
2023-03-11T08:08:11.273Z,5.60
2023-03-11T08:10:39.779Z,6.68
2023-03-11T08:13:06.133Z,6.15
2023-03-11T08:15:32.619Z,9.43
2023-03-11T08:17:59.248Z,5.63
2023-03-11T08:20:25.710Z,8.27
2023-03-11T08:22:58.136Z,5.90
2023-03-11T08:25:24.848Z,8.77
2023-03-11T08:27:52.618Z,4.38
2023-03-11T08:30:19.393Z,6.25
2023-03-11T08:32:45.897Z,7.03
2023-03-11T08:35:12.484Z,12.50
2023-03-11T08:37:39.074Z,11.00
2023-03-11T08:40:06.604Z,4.78
2023-03-11T08:42:33.386Z,15.00
2023-03-11T08:45:01.045Z,6.03
2023-03-11T08:47:27.554Z,8.13
2023-03-11T08:49:54.109Z,7.15
2023-03-11T08:52:20.473Z,5.18
2023-03-11T08:54:46.829Z,7.43
2023-03-11T08:57:13.216Z,8.07
2023-03-11T08:59:39.660Z,6.25
2023-03-11T09:02:07.359Z,4.38
2023-03-11T09:04:33.743Z,8.13
2023-03-11T09:07:00.115Z,5.60
2023-03-11T09:09:26.462Z,5.25
2023-03-11T09:11:52.836Z,8.55
2023-03-11T09:14:19.197Z,4.55
2023-03-11T09:16:45.556Z,5.32
2023-03-11T09:19:13.257Z,4.68
2023-03-11T09:21:39.606Z,5.85
2023-03-11T09:24:06.981Z,5.57
2023-03-11T09:26:33.566Z,5.25
2023-03-11T09:28:59.955Z,4.75
2023-03-11T09:31:26.383Z,7.93
2023-03-11T09:33:52.792Z,6.03
2023-03-11T09:36:21.680Z,9.68
2023-03-11T09:38:48.686Z,13.18
2023-03-11T09:41:25.847Z,9.00
2023-03-11T09:44:04.178Z,9.07
2023-03-11T09:46:49.037Z,5.93
2023-03-11T09:49:22.696Z,4.28
2023-03-11T09:51:58.082Z,5.13
2023-03-11T09:54:25.007Z,5.40
2023-03-11T09:56:51.777Z,6.95
2023-03-11T09:59:23.146Z,7.35
2023-03-11T10:01:50.792Z,9.40
2023-03-11T10:04:23.387Z,6.43
2023-03-11T10:06:51.085Z,5.72
2023-03-11T10:09:33.389Z,6.40
2023-03-11T10:12:12.502Z,4.28
2023-03-11T10:14:51.296Z,5.85
2023-03-11T10:17:34.759Z,4.45
2023-03-11T10:20:08.958Z,5.28
2023-03-11T10:22:43.602Z,5.15
2023-03-11T10:25:14.099Z,6.57
2023-03-11T10:27:45.726Z,4.10
2023-03-11T10:30:20.146Z,6.55
2023-03-11T10:32:51.339Z,7.07
2023-03-11T10:35:21.630Z,4.88
2023-03-11T10:37:53.705Z,4.53
2023-03-11T10:40:28.120Z,3.78
2023-03-11T10:42:59.047Z,6.57
2023-03-11T10:45:27.135Z,6.63
2023-03-11T10:47:56.061Z,4.40
2023-03-11T10:50:22.405Z,6.97
2023-03-11T10:53:10.855Z,7.20
2023-03-11T10:55:46.412Z,3.97
2023-03-11T10:58:15.276Z,5.90
2023-03-11T11:00:41.729Z,8.23
2023-03-11T11:03:18.709Z,6.10
2023-03-11T11:05:56.182Z,9.73
2023-03-11T11:08:24.177Z,6.63
2023-03-11T11:10:51.948Z,7.75
2023-03-11T11:13:21.003Z,6.88
2023-03-11T11:15:59.478Z,4.35
2023-03-11T11:18:30.579Z,6.63
2023-03-11T11:21:01.179Z,4.55
2023-03-11T11:23:33.141Z,4.85
2023-03-11T11:26:01.776Z,7.40
2023-03-11T11:28:28.206Z,4.20
2023-03-11T11:30:56.784Z,6.43
2023-03-11T11:33:26.709Z,4.72
2023-03-11T11:35:57.686Z,4.40
2023-03-11T11:38:26.764Z,6.03
2023-03-11T11:40:57.454Z,4.95
2023-03-11T11:43:34.077Z,6.88
2023-03-11T11:46:04.069Z,5.40
2023-03-11T11:48:40.798Z,4.88
2023-03-11T11:51:16.465Z,4.88
2023-03-11T11:53:44.863Z,4.63
2023-03-11T11:56:12.792Z,5.65
2023-03-11T11:58:40.266Z,5.85
2023-03-11T12:01:15.581Z,6.22
2023-03-11T12:04:01.711Z,5.10
2023-03-11T12:06:35.195Z,5.15
2023-03-11T12:09:11.707Z,5.38
2023-03-11T12:11:43.866Z,3.85
2023-03-11T12:14:17.796Z,5.22
2023-03-11T12:16:53.942Z,5.40
2023-03-11T12:19:30.887Z,5.35
2023-03-11T12:22:24.567Z,4.63
2023-03-11T12:25:03.540Z,5.22
2023-03-11T12:27:35.851Z,7.78
2023-03-11T12:30:11.209Z,3.90
2023-03-11T12:32:41.596Z,4.70
2023-03-11T12:35:17.614Z,4.90
2023-03-11T12:37:44.050Z,5.75
2023-03-11T12:40:47.780Z,5.75
2023-03-11T12:43:58.574Z,5.27
2023-03-11T12:47:08.828Z,7.28
2023-03-11T12:49:37.628Z,5.53
2023-03-11T12:52:20.709Z,9.52
2023-03-11T12:54:48.680Z,4.00
2023-03-11T12:57:32.080Z,4.97
2023-03-11T13:00:13.972Z,4.50
2023-03-11T13:03:14.500Z,8.68
2023-03-11T13:06:00.341Z,5.60
2023-03-11T13:08:29.205Z,4.78
2023-03-11T13:10:56.289Z,5.85
2023-03-11T13:13:30.311Z,6.35
2023-03-11T13:16:18.394Z,6.85
2023-03-11T13:18:47.906Z,3.95
2023-03-11T13:21:38.961Z,4.50
2023-03-11T13:24:38.604Z,5.22
2023-03-11T13:27:12.446Z,4.55
2023-03-11T13:32:40.365Z,8.05
2023-03-11T13:35:23.970Z,5.30
2023-03-11T13:38:11.362Z,6.38
2023-03-11T13:40:40.005Z,3.30
2023-03-11T13:43:12.116Z,3.83
2023-03-11T13:45:38.811Z,10.35
2023-03-11T13:48:13.740Z,4.93
2023-03-11T13:50:47.191Z,8.45
2023-03-11T13:53:19.749Z,4.68
2023-03-11T13:55:47.598Z,5.40
2023-03-11T13:58:16.310Z,6.93
2023-03-11T14:00:49.124Z,4.30
2023-03-11T14:03:16.320Z,4.22
2023-03-11T14:05:46.294Z,5.72
2023-03-11T14:08:17.536Z,6.13
2023-03-11T14:10:51.674Z,5.47
2023-03-11T14:13:18.807Z,6.00
2023-03-11T14:15:53.565Z,4.55
2023-03-11T14:18:32.878Z,4.25
2023-03-11T14:21:01.505Z,4.93
2023-03-11T14:23:30.681Z,6.80
2023-03-11T14:26:03.645Z,4.47
2023-03-11T14:28:34.102Z,2.67
2023-03-11T14:31:02.155Z,7.95
2023-03-11T14:33:28.638Z,6.82
2023-03-11T14:35:56.814Z,4.82
2023-03-11T14:38:26.579Z,3.70
2023-03-11T14:40:56.570Z,5.90
2023-03-11T14:43:23.449Z,4.15
2023-03-11T14:45:52.367Z,4.35
2023-03-11T14:48:24.560Z,5.78
2023-03-11T14:50:53.447Z,5.30
2023-03-11T14:53:23.125Z,4.70
2023-03-11T14:55:54.908Z,2.47
2023-03-11T14:58:27.978Z,5.30
2023-03-11T15:00:58.370Z,3.95
2023-03-11T15:03:26.741Z,5.57
2023-03-11T15:05:56.337Z,7.00
2023-03-11T15:08:25.778Z,3.60
2023-03-11T15:11:08.638Z,5.90
2023-03-11T15:13:36.194Z,3.45
2023-03-11T15:16:04.361Z,5.63
2023-03-11T15:18:32.408Z,7.35
2023-03-11T15:21:12.900Z,4.80
2023-03-11T15:23:40.038Z,3.55
2023-03-11T15:26:18.949Z,3.38
2023-03-11T15:28:45.363Z,4.47
2023-03-11T15:31:15.476Z,5.78
2023-03-11T15:33:42.589Z,6.30
2023-03-11T15:36:30.475Z,3.05
2023-03-11T15:39:14.860Z,4.53
2023-03-11T15:41:44.825Z,11.10
2023-03-11T15:44:24.946Z,2.88
2023-03-11T15:46:51.428Z,5.38
2023-03-11T15:49:17.792Z,6.53
2023-03-11T15:51:44.258Z,5.20
2023-03-11T15:54:10.595Z,5.82
2023-03-11T15:56:37.445Z,4.55
2023-03-11T15:59:05.386Z,3.60
2023-03-11T16:01:31.746Z,4.78
2023-03-11T16:03:58.218Z,2.60
2023-03-11T16:06:24.850Z,4.38
2023-03-11T16:08:51.209Z,4.45
2023-03-11T16:11:17.578Z,2.25
2023-03-11T16:13:44.237Z,2.67
2023-03-11T16:16:16.217Z,5.82
2023-03-11T16:18:42.685Z,3.60
2023-03-11T16:21:14.048Z,5.47
2023-03-11T16:23:51.202Z,9.25
2023-03-11T16:26:19.164Z,8.18
2023-03-11T16:28:45.516Z,8.10
2023-03-11T16:31:13.360Z,5.15
2023-03-11T16:33:39.934Z,4.32
2023-03-11T16:36:06.805Z,3.97
2023-03-11T16:38:43.247Z,4.63
2023-03-11T16:41:09.632Z,6.93
2023-03-11T16:43:35.983Z,7.97
2023-03-11T16:46:02.497Z,5.10
2023-03-11T16:48:30.256Z,4.55
2023-03-11T16:50:56.804Z,2.78
2023-03-11T16:53:23.388Z,7.10
2023-03-11T16:55:49.755Z,5.68
2023-03-11T16:58:16.218Z,3.35
2023-03-11T17:00:43.629Z,4.20
2023-03-11T17:03:11.573Z,6.25
2023-03-11T17:05:39.479Z,5.40
2023-03-11T17:08:06.778Z,4.95
2023-03-11T17:10:36.478Z,6.32
2023-03-11T17:13:02.937Z,4.80
2023-03-11T17:15:29.392Z,8.40
2023-03-11T17:17:55.755Z,9.45
2023-03-11T17:20:22.227Z,7.55
2023-03-11T17:22:50.017Z,4.95
2023-03-11T17:25:16.432Z,3.67
2023-03-11T17:27:42.976Z,7.28
2023-03-11T17:30:11.821Z,4.45
2023-03-11T17:32:38.421Z,7.07
2023-03-11T17:35:05.596Z,10.82
2023-03-11T17:37:32.051Z,6.18
2023-03-11T17:39:59.922Z,8.32
2023-03-11T17:42:26.375Z,6.32
2023-03-11T17:44:55.512Z,6.50
2023-03-11T17:47:21.884Z,8.93
2023-03-11T17:49:48.833Z,8.05
2023-03-11T17:52:15.249Z,9.15
2023-03-11T17:54:41.600Z,8.23
2023-03-11T17:57:09.274Z,5.78
2023-03-11T17:59:35.697Z,12.77
2023-03-11T18:02:02.307Z,8.63
2023-03-11T18:04:28.798Z,8.23
2023-03-11T18:06:55.452Z,18.55
2023-03-11T18:09:21.869Z,9.13
2023-03-11T18:11:48.508Z,8.07
2023-03-11T18:14:16.301Z,8.95
2023-03-11T18:16:42.722Z,7.47
2023-03-11T18:19:09.105Z,8.35
2023-03-11T18:21:35.527Z,7.72
2023-03-11T18:24:01.903Z,8.75
2023-03-11T18:26:29.917Z,11.05
2023-03-11T18:28:58.100Z,10.45
2023-03-11T18:31:27.231Z,12.50
2023-03-11T18:33:55.765Z,13.40
2023-03-11T18:36:24.320Z,8.60
2023-03-11T18:38:52.622Z,8.43
2023-03-11T18:41:19.043Z,11.80
2023-03-11T18:43:45.655Z,9.55
2023-03-11T18:46:14.594Z,8.43
2023-03-11T18:48:42.931Z,9.45
2023-03-11T18:51:09.325Z,7.50
2023-03-11T18:53:36.268Z,7.15
2023-03-11T18:56:05.381Z,6.82
2023-03-11T18:58:31.881Z,8.45
2023-03-11T19:01:03.858Z,8.35
2023-03-11T19:03:30.303Z,5.20
2023-03-11T19:05:58.769Z,9.05
2023-03-11T19:08:25.177Z,9.55
2023-03-11T19:10:51.520Z,8.43
2023-03-11T19:13:18.134Z,8.88
2023-03-11T19:15:45.192Z,5.88
2023-03-11T19:18:12.908Z,7.57
2023-03-11T19:20:39.484Z,13.07
2023-03-11T19:23:07.355Z,8.00
2023-03-11T19:25:34.571Z,11.57
2023-03-11T19:28:01.210Z,9.27
2023-03-11T19:30:27.646Z,7.20
2023-03-11T19:32:54.138Z,10.02
2023-03-11T19:35:21.780Z,6.97
2023-03-11T19:37:48.420Z,9.00
2023-03-11T19:40:17.329Z,8.93
2023-03-11T19:42:43.953Z,8.65
2023-03-11T19:45:11.563Z,13.27
2023-03-11T19:47:38.399Z,10.65
2023-03-11T19:50:05.586Z,8.63
2023-03-11T19:52:32.163Z,9.25
2023-03-11T19:54:58.681Z,10.20
2023-03-11T19:57:26.428Z,11.30
2023-03-11T19:59:54.821Z,13.95
2023-03-11T20:02:21.263Z,9.82
2023-03-11T20:04:47.749Z,13.60
2023-03-11T20:07:14.146Z,11.95
2023-03-11T20:09:40.582Z,14.23
2023-03-11T20:12:07.558Z,9.73
2023-03-11T20:14:35.319Z,10.77
2023-03-11T20:17:01.730Z,9.18
2023-03-11T20:19:28.293Z,10.30
2023-03-11T20:21:54.693Z,6.47
2023-03-11T20:24:21.084Z,14.05
2023-03-11T20:26:49.969Z,10.75
2023-03-11T20:29:17.590Z,8.65
2023-03-11T20:31:45.689Z,10.02
2023-03-11T20:34:12.753Z,6.63
2023-03-11T20:36:39.261Z,7.88
2023-03-11T20:39:09.432Z,6.65
2023-03-11T20:41:39.131Z,8.15
2023-03-11T20:44:07.237Z,7.32
2023-03-11T20:46:34.179Z,13.43
2023-03-11T20:49:02.214Z,9.30
2023-03-11T20:51:28.693Z,10.23
2023-03-11T20:53:55.324Z,11.57
2023-03-11T20:56:24.164Z,9.57
2023-03-11T20:58:51.790Z,9.15
2023-03-11T21:01:20.947Z,8.05
2023-03-11T21:03:48.458Z,7.28
2023-03-11T21:06:19.396Z,12.00
2023-03-11T21:08:46.527Z,9.85
2023-03-11T21:11:13.454Z,5.93
2023-03-11T21:13:40.007Z,7.65
2023-03-11T21:16:07.446Z,8.07
2023-03-11T21:18:34.220Z,9.82
2023-03-11T21:21:01.296Z,8.48
2023-03-11T21:23:29.177Z,7.68
2023-03-11T21:25:58.987Z,7.80
2023-03-11T21:28:26.118Z,7.97
2023-03-11T21:31:01.334Z,10.13
2023-03-11T21:33:28.251Z,8.13
2023-03-11T21:35:55.394Z,6.95
2023-03-11T21:38:23.777Z,5.40
2023-03-11T21:40:52.575Z,5.05
2023-03-11T21:43:20.079Z,6.80
2023-03-11T21:45:47.055Z,8.25
2023-03-11T21:48:13.928Z,8.10
2023-03-11T21:50:41.397Z,9.82
2023-03-11T21:53:08.141Z,8.93
2023-03-11T21:55:34.578Z,6.20
2023-03-11T21:58:02.424Z,7.65
2023-03-11T22:00:28.984Z,6.30
2023-03-11T22:02:55.334Z,6.05
2023-03-11T22:05:22.037Z,5.47
2023-03-11T22:07:48.697Z,5.25
2023-03-11T22:10:15.132Z,6.55
2023-03-11T22:12:41.521Z,6.93
2023-03-11T22:15:10.739Z,5.32
2023-03-11T22:17:38.032Z,7.20
2023-03-11T22:20:06.200Z,6.03
2023-03-11T22:22:33.906Z,6.82
2023-03-11T22:25:00.314Z,6.47
2023-03-11T22:27:26.704Z,6.55
2023-03-11T22:29:53.134Z,6.60
2023-03-11T22:32:20.898Z,5.53
2023-03-11T22:34:47.462Z,5.28
2023-03-11T22:37:14.202Z,5.72
2023-03-11T22:39:40.565Z,4.75
2023-03-11T22:42:07.257Z,5.88
2023-03-11T22:44:33.778Z,6.85
2023-03-11T22:47:00.148Z,6.75
2023-03-11T22:49:27.817Z,7.22
2023-03-11T22:51:54.187Z,7.40
2023-03-11T22:54:20.557Z,5.55
2023-03-11T22:56:46.955Z,6.28
2023-03-11T22:59:13.368Z,8.93
2023-03-11T23:01:39.724Z,6.45
2023-03-11T23:04:06.197Z,6.32
2023-03-11T23:06:33.986Z,7.20
2023-03-11T23:09:00.378Z,11.70
2023-03-11T23:11:26.728Z,8.77
2023-03-11T23:13:53.188Z,6.95
2023-03-11T23:16:22.252Z,8.45
2023-03-11T23:18:52.220Z,8.18
2023-03-11T23:21:21.699Z,7.72
2023-03-11T23:23:49.820Z,7.55
2023-03-11T23:26:17.620Z,6.65
2023-03-11T23:28:45.099Z,6.05
2023-03-11T23:31:13.805Z,4.78
2023-03-11T23:33:40.291Z,9.10
2023-03-11T23:36:10.183Z,7.10
2023-03-11T23:38:37.307Z,4.80
2023-03-11T23:41:07.010Z,4.75
2023-03-11T23:43:33.544Z,6.10
2023-03-11T23:45:59.925Z,7.35
2023-03-11T23:48:26.344Z,6.80
2023-03-11T23:50:52.726Z,11.50
2023-03-11T23:53:20.374Z,5.97
2023-03-11T23:55:47.377Z,5.70
2023-03-11T23:58:15.075Z,6.90
